sensor_id;sensor_type;location;lat;lon;timestamp;P1;durP1;ratioP1;P2;durP2;ratioP2
17727;SDS011;8984;49.268;12.302;2023-05-09T00:00:06;5.57;;;5.07;;
17727;SDS011;8984;49.268;12.302;2023-05-09T00:02:35;9.17;;;5.77;;
17727;SDS011;8984;49.268;12.302;2023-05-09T00:05:02;5.67;;;5.17;;
17727;SDS011;8984;49.268;12.302;2023-05-09T00:07:29;6.77;;;5.40;;
17727;SDS011;8984;49.268;12.302;2023-05-09T00:09:56;8.03;;;5.57;;
17727;SDS011;8984;49.268;12.302;2023-05-09T00:12:23;7.07;;;5.43;;
17727;SDS011;8984;49.268;12.302;2023-05-09T00:14:50;6.57;;;5.87;;
17727;SDS011;8984;49.268;12.302;2023-05-09T00:17:19;5.93;;;5.10;;
17727;SDS011;8984;49.268;12.302;2023-05-09T00:19:46;6.33;;;5.00;;
17727;SDS011;8984;49.268;12.302;2023-05-09T00:22:13;7.70;;;4.77;;
17727;SDS011;8984;49.268;12.302;2023-05-09T00:24:41;6.27;;;5.20;;
17727;SDS011;8984;49.268;12.302;2023-05-09T00:27:07;6.53;;;5.03;;
17727;SDS011;8984;49.268;12.302;2023-05-09T00:29:35;5.87;;;5.13;;
17727;SDS011;8984;49.268;12.302;2023-05-09T00:32:01;6.07;;;5.17;;
17727;SDS011;8984;49.268;12.302;2023-05-09T00:34:30;6.80;;;5.00;;
17727;SDS011;8984;49.268;12.302;2023-05-09T00:36:56;7.43;;;4.83;;
17727;SDS011;8984;49.268;12.302;2023-05-09T00:39:23;6.10;;;5.50;;
17727;SDS011;8984;49.268;12.302;2023-05-09T00:41:50;7.50;;;5.00;;
17727;SDS011;8984;49.268;12.302;2023-05-09T00:44:18;5.50;;;5.00;;
17727;SDS011;8984;49.268;12.302;2023-05-09T00:46:45;5.67;;;5.00;;
17727;SDS011;8984;49.268;12.302;2023-05-09T00:49:12;5.63;;;5.00;;
17727;SDS011;8984;49.268;12.302;2023-05-09T00:51:40;6.10;;;5.37;;
17727;SDS011;8984;49.268;12.302;2023-05-09T00:54:07;6.33;;;5.37;;
17727;SDS011;8984;49.268;12.302;2023-05-09T00:56:36;5.47;;;4.97;;
17727;SDS011;8984;49.268;12.302;2023-05-09T00:59:02;5.53;;;4.90;;
17727;SDS011;8984;49.268;12.302;2023-05-09T01:01:30;5.60;;;5.00;;
17727;SDS011;8984;49.268;12.302;2023-05-09T01:03:58;6.83;;;5.57;;
17727;SDS011;8984;49.268;12.302;2023-05-09T01:06:27;8.13;;;5.20;;
17727;SDS011;8984;49.268;12.302;2023-05-09T01:09:06;8.90;;;5.73;;
17727;SDS011;8984;49.268;12.302;2023-05-09T01:11:41;6.30;;;5.47;;
17727;SDS011;8984;49.268;12.302;2023-05-09T01:14:14;5.97;;;5.10;;
17727;SDS011;8984;49.268;12.302;2023-05-09T01:16:51;5.73;;;5.20;;
17727;SDS011;8984;49.268;12.302;2023-05-09T01:19:32;6.10;;;5.50;;
17727;SDS011;8984;49.268;12.302;2023-05-09T01:22:16;8.03;;;5.40;;
17727;SDS011;8984;49.268;12.302;2023-05-09T01:27:59;6.53;;;5.83;;
17727;SDS011;8984;49.268;12.302;2023-05-09T01:30:34;6.07;;;5.57;;
17727;SDS011;8984;49.268;12.302;2023-05-09T01:33:04;6.40;;;5.20;;
17727;SDS011;8984;49.268;12.302;2023-05-09T01:35:34;5.97;;;5.27;;
17727;SDS011;8984;49.268;12.302;2023-05-09T01:38:09;6.30;;;5.10;;
17727;SDS011;8984;49.268;12.302;2023-05-09T01:40:38;6.13;;;5.17;;
17727;SDS011;8984;49.268;12.302;2023-05-09T01:43:07;5.97;;;5.33;;
17727;SDS011;8984;49.268;12.302;2023-05-09T01:45:37;6.07;;;5.33;;
17727;SDS011;8984;49.268;12.302;2023-05-09T01:48:06;8.10;;;5.57;;
17727;SDS011;8984;49.268;12.302;2023-05-09T01:50:34;5.43;;;4.93;;
17727;SDS011;8984;49.268;12.302;2023-05-09T01:53:01;5.50;;;4.97;;
17727;SDS011;8984;49.268;12.302;2023-05-09T01:55:31;7.53;;;5.40;;
17727;SDS011;8984;49.268;12.302;2023-05-09T01:58:01;7.00;;;5.17;;
17727;SDS011;8984;49.268;12.302;2023-05-09T02:00:29;6.47;;;5.40;;
17727;SDS011;8984;49.268;12.302;2023-05-09T02:02:58;6.60;;;5.90;;
17727;SDS011;8984;49.268;12.302;2023-05-09T02:05:27;7.37;;;5.70;;
17727;SDS011;8984;49.268;12.302;2023-05-09T02:07:55;7.80;;;6.40;;
17727;SDS011;8984;49.268;12.302;2023-05-09T02:10:22;9.23;;;5.53;;
17727;SDS011;8984;49.268;12.302;2023-05-09T02:12:50;6.57;;;5.67;;
17727;SDS011;8984;49.268;12.302;2023-05-09T02:15:17;7.90;;;5.23;;
17727;SDS011;8984;49.268;12.302;2023-05-09T02:17:45;6.33;;;5.50;;
17727;SDS011;8984;49.268;12.302;2023-05-09T02:20:13;6.93;;;6.20;;
17727;SDS011;8984;49.268;12.302;2023-05-09T02:22:40;6.70;;;5.60;;
17727;SDS011;8984;49.268;12.302;2023-05-09T02:25:09;6.37;;;5.67;;
17727;SDS011;8984;49.268;12.302;2023-05-09T02:27:38;6.40;;;5.80;;
17727;SDS011;8984;49.268;12.302;2023-05-09T02:30:07;5.80;;;5.27;;
17727;SDS011;8984;49.268;12.302;2023-05-09T02:32:36;6.10;;;5.50;;
17727;SDS011;8984;49.268;12.302;2023-05-09T02:35:05;7.27;;;5.40;;
17727;SDS011;8984;49.268;12.302;2023-05-09T02:37:36;6.73;;;6.13;;
17727;SDS011;8984;49.268;12.302;2023-05-09T02:40:04;6.83;;;5.63;;
17727;SDS011;8984;49.268;12.302;2023-05-09T02:42:33;6.60;;;5.90;;
17727;SDS011;8984;49.268;12.302;2023-05-09T02:45:00;7.23;;;5.57;;
17727;SDS011;8984;49.268;12.302;2023-05-09T02:47:27;8.30;;;6.53;;
17727;SDS011;8984;49.268;12.302;2023-05-09T02:49:53;8.67;;;5.13;;
17727;SDS011;8984;49.268;12.302;2023-05-09T02:52:20;6.63;;;6.00;;
17727;SDS011;8984;49.268;12.302;2023-05-09T02:54:48;6.03;;;5.43;;
17727;SDS011;8984;49.268;12.302;2023-05-09T02:57:15;6.83;;;6.13;;
17727;SDS011;8984;49.268;12.302;2023-05-09T02:59:42;6.77;;;6.07;;
17727;SDS011;8984;49.268;12.302;2023-05-09T03:02:08;6.83;;;6.13;;
17727;SDS011;8984;49.268;12.302;2023-05-09T03:04:35;6.23;;;5.53;;
17727;SDS011;8984;49.268;12.302;2023-05-09T03:07:02;5.93;;;5.33;;
17727;SDS011;8984;49.268;12.302;2023-05-09T03:09:29;6.60;;;5.47;;
17727;SDS011;8984;49.268;12.302;2023-05-09T03:11:57;5.80;;;5.20;;
17727;SDS011;8984;49.268;12.302;2023-05-09T03:14:24;6.23;;;5.40;;
17727;SDS011;8984;49.268;12.302;2023-05-09T03:16:51;5.77;;;5.20;;
17727;SDS011;8984;49.268;12.302;2023-05-09T03:19:17;8.10;;;5.73;;
17727;SDS011;8984;49.268;12.302;2023-05-09T03:21:44;7.07;;;5.90;;
17727;SDS011;8984;49.268;12.302;2023-05-09T03:24:11;6.13;;;5.00;;
17727;SDS011;8984;49.268;12.302;2023-05-09T03:26:38;6.53;;;5.93;;
17727;SDS011;8984;49.268;12.302;2023-05-09T03:29:06;5.97;;;5.37;;
17727;SDS011;8984;49.268;12.302;2023-05-09T03:31:33;7.07;;;5.50;;
17727;SDS011;8984;49.268;12.302;2023-05-09T03:34:00;6.30;;;5.70;;
17727;SDS011;8984;49.268;12.302;2023-05-09T03:36:26;5.70;;;5.10;;
17727;SDS011;8984;49.268;12.302;2023-05-09T03:38:53;7.87;;;6.20;;
17727;SDS011;8984;49.268;12.302;2023-05-09T03:41:20;6.70;;;6.00;;
17727;SDS011;8984;49.268;12.302;2023-05-09T03:43:47;6.13;;;5.53;;
17727;SDS011;8984;49.268;12.302;2023-05-09T03:46:15;7.60;;;5.47;;
17727;SDS011;8984;49.268;12.302;2023-05-09T03:48:42;8.47;;;5.70;;
17727;SDS011;8984;49.268;12.302;2023-05-09T03:51:08;6.67;;;5.40;;
17727;SDS011;8984;49.268;12.302;2023-05-09T03:53:35;6.63;;;5.37;;
17727;SDS011;8984;49.268;12.302;2023-05-09T03:56:02;6.57;;;5.40;;
17727;SDS011;8984;49.268;12.302;2023-05-09T03:58:30;8.93;;;5.73;;
17727;SDS011;8984;49.268;12.302;2023-05-09T04:00:57;6.57;;;5.80;;
17727;SDS011;8984;49.268;12.302;2023-05-09T04:03:25;7.57;;;6.63;;
17727;SDS011;8984;49.268;12.302;2023-05-09T04:05:52;7.80;;;6.17;;
17727;SDS011;8984;49.268;12.302;2023-05-09T04:08:19;12.47;;;8.70;;
17727;SDS011;8984;49.268;12.302;2023-05-09T04:10:46;7.47;;;6.70;;
17727;SDS011;8984;49.268;12.302;2023-05-09T04:13:12;6.70;;;5.97;;
17727;SDS011;8984;49.268;12.302;2023-05-09T04:15:40;7.43;;;5.07;;
17727;SDS011;8984;49.268;12.302;2023-05-09T04:18:07;5.70;;;5.10;;
17727;SDS011;8984;49.268;12.302;2023-05-09T04:20:37;5.27;;;4.67;;
17727;SDS011;8984;49.268;12.302;2023-05-09T04:23:04;6.63;;;5.00;;
17727;SDS011;8984;49.268;12.302;2023-05-09T04:25:31;5.07;;;4.57;;
17727;SDS011;8984;49.268;12.302;2023-05-09T04:27:58;4.87;;;4.20;;
17727;SDS011;8984;49.268;12.302;2023-05-09T04:30:25;4.93;;;4.43;;
17727;SDS011;8984;49.268;12.302;2023-05-09T04:32:52;4.80;;;4.27;;
17727;SDS011;8984;49.268;12.302;2023-05-09T04:35:19;4.70;;;4.10;;
17727;SDS011;8984;49.268;12.302;2023-05-09T04:37:47;6.13;;;4.07;;
17727;SDS011;8984;49.268;12.302;2023-05-09T04:40:14;5.40;;;4.30;;
17727;SDS011;8984;49.268;12.302;2023-05-09T04:42:41;5.47;;;4.50;;
17727;SDS011;8984;49.268;12.302;2023-05-09T04:45:09;7.40;;;4.18;;
17727;SDS011;8984;49.268;12.302;2023-05-09T04:47:36;6.32;;;4.20;;
17727;SDS011;8984;49.268;12.302;2023-05-09T04:50:03;4.28;;;3.60;;
17727;SDS011;8984;49.268;12.302;2023-05-09T04:52:31;4.82;;;4.20;;
17727;SDS011;8984;49.268;12.302;2023-05-09T04:54:59;4.28;;;3.88;;
17727;SDS011;8984;49.268;12.302;2023-05-09T04:57:26;6.20;;;4.20;;
17727;SDS011;8984;49.268;12.302;2023-05-09T04:59:52;5.85;;;4.03;;
17727;SDS011;8984;49.268;12.302;2023-05-09T05:02:19;4.28;;;3.88;;
17727;SDS011;8984;49.268;12.302;2023-05-09T05:04:46;6.00;;;3.70;;
17727;SDS011;8984;49.268;12.302;2023-05-09T05:07:13;4.15;;;3.60;;
17727;SDS011;8984;49.268;12.302;2023-05-09T05:09:39;5.25;;;3.50;;
17727;SDS011;8984;49.268;12.302;2023-05-09T05:12:07;3.40;;;3.10;;
17727;SDS011;8984;49.268;12.302;2023-05-09T05:14:34;4.15;;;3.35;;
17727;SDS011;8984;49.268;12.302;2023-05-09T05:17:01;5.60;;;3.47;;
17727;SDS011;8984;49.268;12.302;2023-05-09T05:19:28;3.72;;;3.10;;
17727;SDS011;8984;49.268;12.302;2023-05-09T05:21:55;4.97;;;3.55;;
17727;SDS011;8984;49.268;12.302;2023-05-09T05:24:22;4.63;;;3.85;;
17727;SDS011;8984;49.268;12.302;2023-05-09T05:26:49;4.75;;;3.45;;
17727;SDS011;8984;49.268;12.302;2023-05-09T05:29:17;4.85;;;3.58;;
17727;SDS011;8984;49.268;12.302;2023-05-09T05:31:44;5.05;;;4.03;;
17727;SDS011;8984;49.268;12.302;2023-05-09T05:34:11;6.10;;;3.70;;
17727;SDS011;8984;49.268;12.302;2023-05-09T05:36:38;4.28;;;3.60;;
17727;SDS011;8984;49.268;12.302;2023-05-09T05:39:05;4.80;;;3.28;;
17727;SDS011;8984;49.268;12.302;2023-05-09T05:41:32;4.80;;;3.80;;
17727;SDS011;8984;49.268;12.302;2023-05-09T05:43:58;4.38;;;3.50;;
17727;SDS011;8984;49.268;12.302;2023-05-09T05:46:28;4.90;;;3.95;;
17727;SDS011;8984;49.268;12.302;2023-05-09T05:48:54;7.97;;;3.90;;
17727;SDS011;8984;49.268;12.302;2023-05-09T05:51:21;7.00;;;3.70;;
17727;SDS011;8984;49.268;12.302;2023-05-09T05:53:48;4.38;;;3.38;;
17727;SDS011;8984;49.268;12.302;2023-05-09T05:56:15;7.15;;;3.80;;
17727;SDS011;8984;49.268;12.302;2023-05-09T05:58:42;4.30;;;3.60;;
17727;SDS011;8984;49.268;12.302;2023-05-09T06:01:09;4.83;;;3.33;;
17727;SDS011;8984;49.268;12.302;2023-05-09T06:03:39;4.47;;;3.70;;
17727;SDS011;8984;49.268;12.302;2023-05-09T06:06:05;6.73;;;3.90;;
17727;SDS011;8984;49.268;12.302;2023-05-09T06:08:32;4.37;;;3.33;;
17727;SDS011;8984;49.268;12.302;2023-05-09T06:10:59;6.07;;;3.97;;
17727;SDS011;8984;49.268;12.302;2023-05-09T06:13:26;4.23;;;3.83;;
17727;SDS011;8984;49.268;12.302;2023-05-09T06:15:53;5.43;;;3.43;;
17727;SDS011;8984;49.268;12.302;2023-05-09T06:18:20;5.60;;;4.13;;
17727;SDS011;8984;49.268;12.302;2023-05-09T06:20:49;5.37;;;3.63;;
17727;SDS011;8984;49.268;12.302;2023-05-09T06:23:16;5.57;;;3.70;;
17727;SDS011;8984;49.268;12.302;2023-05-09T06:25:46;6.10;;;3.40;;
17727;SDS011;8984;49.268;12.302;2023-05-09T06:28:13;4.07;;;3.67;;
17727;SDS011;8984;49.268;12.302;2023-05-09T06:30:39;5.43;;;4.20;;
17727;SDS011;8984;49.268;12.302;2023-05-09T06:33:06;4.50;;;3.80;;
17727;SDS011;8984;49.268;12.302;2023-05-09T06:35:33;4.57;;;4.07;;
17727;SDS011;8984;49.268;12.302;2023-05-09T06:38:01;4.80;;;4.00;;
17727;SDS011;8984;49.268;12.302;2023-05-09T06:40:28;4.47;;;4.03;;
17727;SDS011;8984;49.268;12.302;2023-05-09T06:42:54;4.27;;;3.70;;
17727;SDS011;8984;49.268;12.302;2023-05-09T06:45:21;4.83;;;3.90;;
17727;SDS011;8984;49.268;12.302;2023-05-09T06:47:48;6.47;;;3.93;;
17727;SDS011;8984;49.268;12.302;2023-05-09T06:50:15;3.87;;;3.43;;
17727;SDS011;8984;49.268;12.302;2023-05-09T06:52:42;4.70;;;3.13;;
17727;SDS011;8984;49.268;12.302;2023-05-09T06:55:11;4.90;;;3.50;;
17727;SDS011;8984;49.268;12.302;2023-05-09T06:57:38;4.22;;;3.05;;
17727;SDS011;8984;49.268;12.302;2023-05-09T07:00:05;4.47;;;3.37;;
17727;SDS011;8984;49.268;12.302;2023-05-09T07:02:33;3.50;;;3.00;;
17727;SDS011;8984;49.268;12.302;2023-05-09T07:05:00;6.22;;;3.25;;
17727;SDS011;8984;49.268;12.302;2023-05-09T07:07:26;4.80;;;3.60;;
17727;SDS011;8984;49.268;12.302;2023-05-09T07:09:53;4.33;;;3.80;;
17727;SDS011;8984;49.268;12.302;2023-05-09T07:12:21;6.38;;;3.50;;
17727;SDS011;8984;49.268;12.302;2023-05-09T07:14:48;4.95;;;3.67;;
17727;SDS011;8984;49.268;12.302;2023-05-09T07:17:15;5.35;;;3.60;;
17727;SDS011;8984;49.268;12.302;2023-05-09T07:19:41;7.13;;;3.58;;
17727;SDS011;8984;49.268;12.302;2023-05-09T07:22:08;3.72;;;2.92;;
17727;SDS011;8984;49.268;12.302;2023-05-09T07:24:35;5.65;;;3.97;;
17727;SDS011;8984;49.268;12.302;2023-05-09T07:27:02;4.50;;;2.92;;
17727;SDS011;8984;49.268;12.302;2023-05-09T07:29:30;3.85;;;3.40;;
17727;SDS011;8984;49.268;12.302;2023-05-09T07:31:57;4.35;;;3.45;;
17727;SDS011;8984;49.268;12.302;2023-05-09T07:34:23;3.90;;;3.45;;
17727;SDS011;8984;49.268;12.302;2023-05-09T07:36:50;3.42;;;3.13;;
17727;SDS011;8984;49.268;12.302;2023-05-09T07:39:17;5.15;;;3.30;;
17727;SDS011;8984;49.268;12.302;2023-05-09T07:41:44;4.20;;;2.95;;
17727;SDS011;8984;49.268;12.302;2023-05-09T07:44:10;4.20;;;2.83;;
17727;SDS011;8984;49.268;12.302;2023-05-09T07:46:40;4.20;;;2.97;;
17727;SDS011;8984;49.268;12.302;2023-05-09T07:49:07;4.28;;;3.20;;
17727;SDS011;8984;49.268;12.302;2023-05-09T07:51:33;5.47;;;3.10;;
17727;SDS011;8984;49.268;12.302;2023-05-09T07:54:00;3.50;;;2.97;;
17727;SDS011;8984;49.268;12.302;2023-05-09T07:56:27;4.95;;;2.88;;
17727;SDS011;8984;49.268;12.302;2023-05-09T07:58:54;4.25;;;3.22;;
17727;SDS011;8984;49.268;12.302;2023-05-09T08:01:20;5.15;;;2.83;;
17727;SDS011;8984;49.268;12.302;2023-05-09T08:03:48;3.75;;;2.88;;
17727;SDS011;8984;49.268;12.302;2023-05-09T08:06:15;4.65;;;2.75;;
17727;SDS011;8984;49.268;12.302;2023-05-09T08:08:42;3.55;;;2.53;;
17727;SDS011;8984;49.268;12.302;2023-05-09T08:11:09;5.93;;;2.60;;
17727;SDS011;8984;49.268;12.302;2023-05-09T08:13:36;4.13;;;2.80;;
17727;SDS011;8984;49.268;12.302;2023-05-09T08:16:03;4.22;;;2.45;;
17727;SDS011;8984;49.268;12.302;2023-05-09T08:18:31;6.15;;;2.50;;
17727;SDS011;8984;49.268;12.302;2023-05-09T08:20:59;2.50;;;2.20;;
17727;SDS011;8984;49.268;12.302;2023-05-09T08:23:26;3.15;;;2.15;;
17727;SDS011;8984;49.268;12.302;2023-05-09T08:25:54;2.88;;;2.22;;
17727;SDS011;8984;49.268;12.302;2023-05-09T08:28:21;4.10;;;2.15;;
17727;SDS011;8984;49.268;12.302;2023-05-09T08:30:48;3.00;;;2.47;;
17727;SDS011;8984;49.268;12.302;2023-05-09T08:33:16;3.35;;;2.28;;
17727;SDS011;8984;49.268;12.302;2023-05-09T08:35:43;3.03;;;2.33;;
17727;SDS011;8984;49.268;12.302;2023-05-09T08:38:11;5.00;;;2.53;;
17727;SDS011;8984;49.268;12.302;2023-05-09T08:40:39;4.28;;;2.17;;
17727;SDS011;8984;49.268;12.302;2023-05-09T08:43:06;3.15;;;2.30;;
17727;SDS011;8984;49.268;12.302;2023-05-09T08:45:39;6.55;;;2.33;;
17727;SDS011;8984;49.268;12.302;2023-05-09T08:48:11;3.75;;;2.22;;
17727;SDS011;8984;49.268;12.302;2023-05-09T08:50:40;4.07;;;2.58;;
17727;SDS011;8984;49.268;12.302;2023-05-09T08:53:07;6.28;;;2.75;;
17727;SDS011;8984;49.268;12.302;2023-05-09T08:55:36;3.40;;;2.70;;
17727;SDS011;8984;49.268;12.302;2023-05-09T08:58:03;3.63;;;2.50;;
17727;SDS011;8984;49.268;12.302;2023-05-09T09:00:30;2.83;;;2.38;;
17727;SDS011;8984;49.268;12.302;2023-05-09T09:02:59;3.90;;;2.40;;
17727;SDS011;8984;49.268;12.302;2023-05-09T09:05:28;4.60;;;2.40;;
17727;SDS011;8984;49.268;12.302;2023-05-09T09:07:56;6.93;;;2.72;;
17727;SDS011;8984;49.268;12.302;2023-05-09T09:10:24;4.25;;;2.40;;
17727;SDS011;8984;49.268;12.302;2023-05-09T09:12:55;4.53;;;2.35;;
17727;SDS011;8984;49.268;12.302;2023-05-09T09:15:25;4.75;;;2.55;;
17727;SDS011;8984;49.268;12.302;2023-05-09T09:17:54;5.95;;;2.75;;
17727;SDS011;8984;49.268;12.302;2023-05-09T09:20:24;7.43;;;2.35;;
17727;SDS011;8984;49.268;12.302;2023-05-09T09:22:54;5.80;;;2.05;;
17727;SDS011;8984;49.268;12.302;2023-05-09T09:25:24;2.65;;;2.22;;
17727;SDS011;8984;49.268;12.302;2023-05-09T09:27:51;4.72;;;2.30;;
17727;SDS011;8984;49.268;12.302;2023-05-09T09:30:22;6.53;;;2.17;;
17727;SDS011;8984;49.268;12.302;2023-05-09T09:32:49;3.08;;;2.30;;
17727;SDS011;8984;49.268;12.302;2023-05-09T09:35:16;3.10;;;2.20;;
17727;SDS011;8984;49.268;12.302;2023-05-09T09:37:44;1.65;;;1.55;;
17727;SDS011;8984;49.268;12.302;2023-05-09T09:40:11;3.08;;;2.05;;
17727;SDS011;8984;49.268;12.302;2023-05-09T09:42:41;3.22;;;1.85;;
17727;SDS011;8984;49.268;12.302;2023-05-09T09:45:09;2.92;;;2.13;;
17727;SDS011;8984;49.268;12.302;2023-05-09T09:47:38;4.13;;;1.90;;
17727;SDS011;8984;49.268;12.302;2023-05-09T09:50:09;2.80;;;1.95;;
17727;SDS011;8984;49.268;12.302;2023-05-09T09:52:40;3.83;;;2.13;;
17727;SDS011;8984;49.268;12.302;2023-05-09T09:55:09;3.03;;;2.00;;
17727;SDS011;8984;49.268;12.302;2023-05-09T09:57:37;3.08;;;2.25;;
17727;SDS011;8984;49.268;12.302;2023-05-09T10:00:08;2.83;;;2.10;;
17727;SDS011;8984;49.268;12.302;2023-05-09T10:02:47;3.60;;;2.42;;
17727;SDS011;8984;49.268;12.302;2023-05-09T10:05:18;3.08;;;1.88;;
17727;SDS011;8984;49.268;12.302;2023-05-09T10:07:48;2.38;;;1.90;;
17727;SDS011;8984;49.268;12.302;2023-05-09T10:10:17;9.73;;;2.92;;
17727;SDS011;8984;49.268;12.302;2023-05-09T10:12:44;2.20;;;2.00;;
17727;SDS011;8984;49.268;12.302;2023-05-09T10:15:11;3.20;;;2.17;;
17727;SDS011;8984;49.268;12.302;2023-05-09T10:17:42;2.50;;;2.13;;
17727;SDS011;8984;49.268;12.302;2023-05-09T10:20:10;3.53;;;2.35;;
17727;SDS011;8984;49.268;12.302;2023-05-09T10:22:38;3.95;;;2.03;;
17727;SDS011;8984;49.268;12.302;2023-05-09T10:25:09;2.97;;;2.22;;
17727;SDS011;8984;49.268;12.302;2023-05-09T10:27:40;4.35;;;2.20;;
17727;SDS011;8984;49.268;12.302;2023-05-09T10:30:12;3.17;;;2.30;;
17727;SDS011;8984;49.268;12.302;2023-05-09T10:32:42;5.47;;;2.30;;
17727;SDS011;8984;49.268;12.302;2023-05-09T10:35:15;2.55;;;2.15;;
17727;SDS011;8984;49.268;12.302;2023-05-09T10:37:44;2.42;;;2.10;;
17727;SDS011;8984;49.268;12.302;2023-05-09T10:40:11;5.40;;;2.75;;
17727;SDS011;8984;49.268;12.302;2023-05-09T10:42:39;2.50;;;2.30;;
17727;SDS011;8984;49.268;12.302;2023-05-09T10:45:07;2.97;;;2.33;;
17727;SDS011;8984;49.268;12.302;2023-05-09T10:47:35;5.22;;;2.10;;
17727;SDS011;8984;49.268;12.302;2023-05-09T10:50:03;2.63;;;2.20;;
17727;SDS011;8984;49.268;12.302;2023-05-09T10:52:32;4.43;;;2.28;;
17727;SDS011;8984;49.268;12.302;2023-05-09T10:54:59;3.92;;;2.30;;
17727;SDS011;8984;49.268;12.302;2023-05-09T10:57:28;5.10;;;2.35;;
17727;SDS011;8984;49.268;12.302;2023-05-09T10:59:56;2.42;;;2.15;;
17727;SDS011;8984;49.268;12.302;2023-05-09T11:02:24;3.40;;;2.45;;
17727;SDS011;8984;49.268;12.302;2023-05-09T11:07:39;3.85;;;2.38;;
17727;SDS011;8984;49.268;12.302;2023-05-09T11:10:07;2.72;;;2.47;;
17727;SDS011;8984;49.268;12.302;2023-05-09T11:15:18;4.25;;;2.33;;
17727;SDS011;8984;49.268;12.302;2023-05-09T11:17:45;4.70;;;2.40;;
17727;SDS011;8984;49.268;12.302;2023-05-09T11:20:18;2.75;;;2.30;;
17727;SDS011;8984;49.268;12.302;2023-05-09T11:22:54;3.60;;;2.30;;
17727;SDS011;8984;49.268;12.302;2023-05-09T11:25:24;2.40;;;2.10;;
17727;SDS011;8984;49.268;12.302;2023-05-09T11:27:56;3.60;;;2.28;;
17727;SDS011;8984;49.268;12.302;2023-05-09T11:30:25;3.47;;;2.35;;
17727;SDS011;8984;49.268;12.302;2023-05-09T11:33:01;3.13;;;2.20;;
17727;SDS011;8984;49.268;12.302;2023-05-09T11:35:30;2.92;;;2.10;;
17727;SDS011;8984;49.268;12.302;2023-05-09T11:38:00;4.65;;;2.33;;
17727;SDS011;8984;49.268;12.302;2023-05-09T11:40:28;4.80;;;2.53;;
17727;SDS011;8984;49.268;12.302;2023-05-09T11:42:56;3.88;;;2.42;;
17727;SDS011;8984;49.268;12.302;2023-05-09T11:45:24;5.22;;;2.17;;
17727;SDS011;8984;49.268;12.302;2023-05-09T11:47:52;2.45;;;2.00;;
17727;SDS011;8984;49.268;12.302;2023-05-09T11:50:20;5.00;;;1.95;;
17727;SDS011;8984;49.268;12.302;2023-05-09T11:52:48;2.40;;;2.17;;
17727;SDS011;8984;49.268;12.302;2023-05-09T11:55:18;5.35;;;1.95;;
17727;SDS011;8984;49.268;12.302;2023-05-09T11:57:47;2.85;;;1.73;;
17727;SDS011;8984;49.268;12.302;2023-05-09T12:00:16;7.40;;;2.22;;
17727;SDS011;8984;49.268;12.302;2023-05-09T12:02:44;3.75;;;1.95;;
17727;SDS011;8984;49.268;12.302;2023-05-09T12:05:12;3.80;;;2.17;;
17727;SDS011;8984;49.268;12.302;2023-05-09T12:07:42;4.82;;;2.10;;
17727;SDS011;8984;49.268;12.302;2023-05-09T12:10:10;2.20;;;1.80;;
17727;SDS011;8984;49.268;12.302;2023-05-09T12:12:42;3.05;;;2.00;;
17727;SDS011;8984;49.268;12.302;2023-05-09T12:15:10;2.67;;;1.83;;
17727;SDS011;8984;49.268;12.302;2023-05-09T12:17:37;7.57;;;2.08;;
17727;SDS011;8984;49.268;12.302;2023-05-09T12:20:05;3.58;;;2.40;;
17727;SDS011;8984;49.268;12.302;2023-05-09T12:22:33;1.60;;;1.50;;
17727;SDS011;8984;49.268;12.302;2023-05-09T12:25:03;2.90;;;2.03;;
17727;SDS011;8984;49.268;12.302;2023-05-09T12:27:31;2.22;;;1.85;;
17727;SDS011;8984;49.268;12.302;2023-05-09T12:30:00;2.28;;;1.90;;
17727;SDS011;8984;49.268;12.302;2023-05-09T12:32:32;4.03;;;2.03;;
17727;SDS011;8984;49.268;12.302;2023-05-09T12:35:00;2.22;;;2.03;;
17727;SDS011;8984;49.268;12.302;2023-05-09T12:37:28;3.42;;;1.80;;
17727;SDS011;8984;49.268;12.302;2023-05-09T12:40:00;5.07;;;2.25;;
17727;SDS011;8984;49.268;12.302;2023-05-09T12:42:28;2.70;;;1.90;;
17727;SDS011;8984;49.268;12.302;2023-05-09T12:44:55;3.20;;;2.00;;
17727;SDS011;8984;49.268;12.302;2023-05-09T12:47:26;5.05;;;1.95;;
17727;SDS011;8984;49.268;12.302;2023-05-09T12:49:56;4.05;;;2.03;;
17727;SDS011;8984;49.268;12.302;2023-05-09T12:52:23;10.07;;;2.08;;
17727;SDS011;8984;49.268;12.302;2023-05-09T12:54:50;3.72;;;1.92;;
17727;SDS011;8984;49.268;12.302;2023-05-09T12:57:21;3.40;;;1.77;;
17727;SDS011;8984;49.268;12.302;2023-05-09T12:59:49;2.47;;;1.60;;
17727;SDS011;8984;49.268;12.302;2023-05-09T13:02:16;3.08;;;1.98;;
17727;SDS011;8984;49.268;12.302;2023-05-09T13:04:44;6.05;;;2.08;;
17727;SDS011;8984;49.268;12.302;2023-05-09T13:07:11;6.03;;;2.05;;
17727;SDS011;8984;49.268;12.302;2023-05-09T13:09:53;2.28;;;1.70;;
17727;SDS011;8984;49.268;12.302;2023-05-09T13:12:21;2.03;;;1.75;;
17727;SDS011;8984;49.268;12.302;2023-05-09T13:14:49;3.13;;;1.90;;
17727;SDS011;8984;49.268;12.302;2023-05-09T13:17:16;4.57;;;2.00;;
17727;SDS011;8984;49.268;12.302;2023-05-09T13:19:44;3.50;;;2.15;;
17727;SDS011;8984;49.268;12.302;2023-05-09T13:22:11;3.33;;;2.10;;
17727;SDS011;8984;49.268;12.302;2023-05-09T13:24:38;3.72;;;2.10;;
17727;SDS011;8984;49.268;12.302;2023-05-09T13:27:05;2.15;;;1.83;;
17727;SDS011;8984;49.268;12.302;2023-05-09T13:29:31;2.50;;;1.90;;
17727;SDS011;8984;49.268;12.302;2023-05-09T13:31:58;2.00;;;1.70;;
17727;SDS011;8984;49.268;12.302;2023-05-09T13:34:25;6.00;;;1.85;;
17727;SDS011;8984;49.268;12.302;2023-05-09T13:36:53;1.92;;;1.70;;
17727;SDS011;8984;49.268;12.302;2023-05-09T13:39:20;2.03;;;1.90;;
17727;SDS011;8984;49.268;12.302;2023-05-09T13:41:46;2.25;;;2.00;;
17727;SDS011;8984;49.268;12.302;2023-05-09T13:44:15;2.83;;;2.10;;
17727;SDS011;8984;49.268;12.302;2023-05-09T13:46:42;5.93;;;2.22;;
17727;SDS011;8984;49.268;12.302;2023-05-09T13:49:10;4.57;;;1.85;;
17727;SDS011;8984;49.268;12.302;2023-05-09T13:51:37;2.33;;;2.00;;
17727;SDS011;8984;49.268;12.302;2023-05-09T13:54:05;2.15;;;1.95;;
17727;SDS011;8984;49.268;12.302;2023-05-09T13:56:36;3.20;;;1.98;;
17727;SDS011;8984;49.268;12.302;2023-05-09T13:59:03;4.75;;;1.80;;
17727;SDS011;8984;49.268;12.302;2023-05-09T14:01:30;4.13;;;2.40;;
17727;SDS011;8984;49.268;12.302;2023-05-09T14:03:57;2.40;;;1.80;;
17727;SDS011;8984;49.268;12.302;2023-05-09T14:06:24;3.67;;;2.10;;
17727;SDS011;8984;49.268;12.302;2023-05-09T14:08:50;2.58;;;1.95;;
17727;SDS011;8984;49.268;12.302;2023-05-09T14:11:19;2.28;;;1.90;;
17727;SDS011;8984;49.268;12.302;2023-05-09T14:13:46;7.88;;;2.20;;
17727;SDS011;8984;49.268;12.302;2023-05-09T14:16:13;3.33;;;2.10;;
17727;SDS011;8984;49.268;12.302;2023-05-09T14:18:40;2.95;;;2.20;;
17727;SDS011;8984;49.268;12.302;2023-05-09T14:21:06;3.13;;;2.55;;
17727;SDS011;8984;49.268;12.302;2023-05-09T14:23:33;3.75;;;2.35;;
17727;SDS011;8984;49.268;12.302;2023-05-09T14:26:00;2.65;;;1.90;;
17727;SDS011;8984;49.268;12.302;2023-05-09T14:28:28;3.22;;;2.47;;
17727;SDS011;8984;49.268;12.302;2023-05-09T14:30:55;2.40;;;2.13;;
17727;SDS011;8984;49.268;12.302;2023-05-09T14:33:22;2.67;;;1.90;;
17727;SDS011;8984;49.268;12.302;2023-05-09T14:35:49;3.78;;;2.13;;
17727;SDS011;8984;49.268;12.302;2023-05-09T14:38:16;2.78;;;1.95;;
17727;SDS011;8984;49.268;12.302;2023-05-09T14:40:42;2.42;;;2.08;;
17727;SDS011;8984;49.268;12.302;2023-05-09T14:43:09;6.13;;;2.20;;
17727;SDS011;8984;49.268;12.302;2023-05-09T14:45:38;6.30;;;2.10;;
17727;SDS011;8984;49.268;12.302;2023-05-09T14:48:04;2.63;;;2.00;;
17727;SDS011;8984;49.268;12.302;2023-05-09T14:50:31;4.03;;;2.05;;
17727;SDS011;8984;49.268;12.302;2023-05-09T14:52:58;2.75;;;2.13;;
17727;SDS011;8984;49.268;12.302;2023-05-09T14:55:26;4.18;;;2.13;;
17727;SDS011;8984;49.268;12.302;2023-05-09T14:57:55;3.85;;;1.92;;
17727;SDS011;8984;49.268;12.302;2023-05-09T15:00:22;3.08;;;1.95;;